sensor_id;sensor_type;location;lat;lon;timestamp;temperature;humidity
23405;DHT22;11875;49.356;2.718;2023-02-28T00:00:04;3.90;99.90
23405;DHT22;11875;49.356;2.718;2023-02-28T00:02:42;3.90;99.90
23405;DHT22;11875;49.356;2.718;2023-02-28T00:05:11;3.90;99.90
23405;DHT22;11875;49.356;2.718;2023-02-28T00:07:37;3.90;99.90
23405;DHT22;11875;49.356;2.718;2023-02-28T00:10:05;4.00;99.90
23405;DHT22;11875;49.356;2.718;2023-02-28T00:12:35;3.90;99.90
23405;DHT22;11875;49.356;2.718;2023-02-28T00:15:02;3.90;99.90
23405;DHT22;11875;49.356;2.718;2023-02-28T00:17:28;3.80;99.90
23405;DHT22;11875;49.356;2.718;2023-02-28T00:19:53;4.00;99.90
23405;DHT22;11875;49.356;2.718;2023-02-28T00:22:20;3.90;99.90
23405;DHT22;11875;49.356;2.718;2023-02-28T00:24:46;3.90;99.90
23405;DHT22;11875;49.356;2.718;2023-02-28T00:27:13;3.90;99.90
23405;DHT22;11875;49.356;2.718;2023-02-28T00:29:39;3.90;99.90
23405;DHT22;11875;49.356;2.718;2023-02-28T00:32:06;3.90;99.90
23405;DHT22;11875;49.356;2.718;2023-02-28T00:34:32;3.90;99.90
23405;DHT22;11875;49.356;2.718;2023-02-28T00:37:04;3.90;99.90
23405;DHT22;11875;49.356;2.718;2023-02-28T00:39:30;3.80;99.90
23405;DHT22;11875;49.356;2.718;2023-02-28T00:41:55;3.80;99.90
23405;DHT22;11875;49.356;2.718;2023-02-28T00:44:21;3.70;99.90
23405;DHT22;11875;49.356;2.718;2023-02-28T00:46:47;3.50;99.90
23405;DHT22;11875;49.356;2.718;2023-02-28T00:49:12;3.40;99.90
23405;DHT22;11875;49.356;2.718;2023-02-28T00:51:38;3.90;99.90
23405;DHT22;11875;49.356;2.718;2023-02-28T00:54:04;3.40;99.90
23405;DHT22;11875;49.356;2.718;2023-02-28T00:56:29;3.30;99.90
23405;DHT22;11875;49.356;2.718;2023-02-28T00:58:55;3.40;99.90
23405;DHT22;11875;49.356;2.718;2023-02-28T01:01:20;3.30;99.90
23405;DHT22;11875;49.356;2.718;2023-02-28T01:03:46;3.20;99.90
23405;DHT22;11875;49.356;2.718;2023-02-28T01:06:12;3.20;99.90
23405;DHT22;11875;49.356;2.718;2023-02-28T01:08:37;3.30;99.90
23405;DHT22;11875;49.356;2.718;2023-02-28T01:11:14;3.20;99.90
23405;DHT22;11875;49.356;2.718;2023-02-28T01:13:41;3.30;99.90
23405;DHT22;11875;49.356;2.718;2023-02-28T01:16:07;3.30;99.90
23405;DHT22;11875;49.356;2.718;2023-02-28T01:18:32;3.20;99.90
23405;DHT22;11875;49.356;2.718;2023-02-28T01:20:58;3.20;99.90
23405;DHT22;11875;49.356;2.718;2023-02-28T01:23:28;3.20;99.90
23405;DHT22;11875;49.356;2.718;2023-02-28T01:25:53;3.10;99.90
23405;DHT22;11875;49.356;2.718;2023-02-28T01:28:19;3.10;99.90
23405;DHT22;11875;49.356;2.718;2023-02-28T01:30:51;3.10;99.90
23405;DHT22;11875;49.356;2.718;2023-02-28T01:33:17;3.10;99.90
23405;DHT22;11875;49.356;2.718;2023-02-28T01:35:42;3.00;99.90
23405;DHT22;11875;49.356;2.718;2023-02-28T01:38:08;3.00;99.90
23405;DHT22;11875;49.356;2.718;2023-02-28T01:40:33;2.90;99.90
23405;DHT22;11875;49.356;2.718;2023-02-28T01:42:59;3.00;99.90
23405;DHT22;11875;49.356;2.718;2023-02-28T01:45:31;2.80;99.90
23405;DHT22;11875;49.356;2.718;2023-02-28T01:48:02;2.70;99.90
23405;DHT22;11875;49.356;2.718;2023-02-28T01:50:33;2.80;99.90
23405;DHT22;11875;49.356;2.718;2023-02-28T01:53:01;2.80;99.90
23405;DHT22;11875;49.356;2.718;2023-02-28T01:55:29;2.80;99.90
23405;DHT22;11875;49.356;2.718;2023-02-28T01:57:58;3.80;99.90
23405;DHT22;11875;49.356;2.718;2023-02-28T02:00:26;2.90;99.90
23405;DHT22;11875;49.356;2.718;2023-02-28T02:02:58;2.80;99.90
23405;DHT22;11875;49.356;2.718;2023-02-28T02:05:27;2.40;99.90
23405;DHT22;11875;49.356;2.718;2023-02-28T02:08:15;2.90;99.90
23405;DHT22;11875;49.356;2.718;2023-02-28T02:10:59;2.90;99.90
23405;DHT22;11875;49.356;2.718;2023-02-28T02:16:06;2.80;99.90
23405;DHT22;11875;49.356;2.718;2023-02-28T02:18:57;2.80;99.90
23405;DHT22;11875;49.356;2.718;2023-02-28T02:33:00;2.80;99.90
23405;DHT22;11875;49.356;2.718;2023-02-28T02:35:47;2.90;99.90
23405;DHT22;11875;49.356;2.718;2023-02-28T02:41:19;2.90;99.90
23405;DHT22;11875;49.356;2.718;2023-02-28T02:43:51;3.00;99.90
23405;DHT22;11875;49.356;2.718;2023-02-28T02:46:34;3.00;99.90
23405;DHT22;11875;49.356;2.718;2023-02-28T02:49:06;3.00;99.90
23405;DHT22;11875;49.356;2.718;2023-02-28T02:51:34;2.90;99.90
23405;DHT22;11875;49.356;2.718;2023-02-28T02:54:08;2.90;99.90
23405;DHT22;11875;49.356;2.718;2023-02-28T02:56:36;2.80;99.90
23405;DHT22;11875;49.356;2.718;2023-02-28T02:59:08;2.90;99.90
23405;DHT22;11875;49.356;2.718;2023-02-28T03:01:35;2.80;99.90
23405;DHT22;11875;49.356;2.718;2023-02-28T03:04:06;2.90;99.90
23405;DHT22;11875;49.356;2.718;2023-02-28T03:06:32;2.80;99.90
23405;DHT22;11875;49.356;2.718;2023-02-28T03:09:00;2.80;99.90
23405;DHT22;11875;49.356;2.718;2023-02-28T03:11:25;2.80;99.90
23405;DHT22;11875;49.356;2.718;2023-02-28T03:22:21;2.70;99.90
23405;DHT22;11875;49.356;2.718;2023-02-28T03:33:29;2.60;99.90
23405;DHT22;11875;49.356;2.718;2023-02-28T03:35:59;2.50;99.90
23405;DHT22;11875;49.356;2.718;2023-02-28T03:41:00;2.50;99.90
23405;DHT22;11875;49.356;2.718;2023-02-28T03:43:31;2.60;99.90
23405;DHT22;11875;49.356;2.718;2023-02-28T03:46:01;2.50;99.90
23405;DHT22;11875;49.356;2.718;2023-02-28T03:48:50;2.60;99.90
23405;DHT22;11875;49.356;2.718;2023-02-28T03:51:19;2.50;99.90
23405;DHT22;11875;49.356;2.718;2023-02-28T03:54:09;2.50;99.90
23405;DHT22;11875;49.356;2.718;2023-02-28T03:56:41;2.50;99.90
23405;DHT22;11875;49.356;2.718;2023-02-28T03:59:32;2.50;99.90
23405;DHT22;11875;49.356;2.718;2023-02-28T04:01:59;2.60;99.90
23405;DHT22;11875;49.356;2.718;2023-02-28T04:04:25;2.60;99.90
23405;DHT22;11875;49.356;2.718;2023-02-28T04:06:51;2.60;99.90
23405;DHT22;11875;49.356;2.718;2023-02-28T04:09:17;2.50;99.90
23405;DHT22;11875;49.356;2.718;2023-02-28T04:11:50;2.60;99.90
23405;DHT22;11875;49.356;2.718;2023-02-28T04:14:18;2.50;99.90
23405;DHT22;11875;49.356;2.718;2023-02-28T04:16:44;2.40;99.90
23405;DHT22;11875;49.356;2.718;2023-02-28T04:19:11;2.50;99.90
23405;DHT22;11875;49.356;2.718;2023-02-28T04:21:41;2.50;99.90
23405;DHT22;11875;49.356;2.718;2023-02-28T04:24:08;2.50;99.90
23405;DHT22;11875;49.356;2.718;2023-02-28T04:26:36;2.40;99.90
23405;DHT22;11875;49.356;2.718;2023-02-28T04:29:04;2.50;99.90
23405;DHT22;11875;49.356;2.718;2023-02-28T04:31:30;2.40;99.90
23405;DHT22;11875;49.356;2.718;2023-02-28T04:33:56;2.30;99.90
23405;DHT22;11875;49.356;2.718;2023-02-28T04:36:22;2.30;99.90
23405;DHT22;11875;49.356;2.718;2023-02-28T04:38:49;2.30;99.90
23405;DHT22;11875;49.356;2.718;2023-02-28T04:41:15;2.20;99.90
23405;DHT22;11875;49.356;2.718;2023-02-28T04:43:41;2.20;99.90
23405;DHT22;11875;49.356;2.718;2023-02-28T04:46:07;2.00;99.90
23405;DHT22;11875;49.356;2.718;2023-02-28T04:48:36;1.90;99.90
23405;DHT22;11875;49.356;2.718;2023-02-28T04:51:04;1.90;99.90
23405;DHT22;11875;49.356;2.718;2023-02-28T04:53:31;1.80;99.90
23405;DHT22;11875;49.356;2.718;2023-02-28T04:55:57;1.80;99.90
23405;DHT22;11875;49.356;2.718;2023-02-28T04:58:23;2.00;99.90
23405;DHT22;11875;49.356;2.718;2023-02-28T05:00:52;2.00;99.90
23405;DHT22;11875;49.356;2.718;2023-02-28T05:03:18;1.90;99.90
23405;DHT22;11875;49.356;2.718;2023-02-28T05:05:44;2.10;99.90
23405;DHT22;11875;49.356;2.718;2023-02-28T05:08:10;2.10;99.90
23405;DHT22;11875;49.356;2.718;2023-02-28T05:10:37;2.00;99.90
23405;DHT22;11875;49.356;2.718;2023-02-28T05:13:02;1.90;99.90
23405;DHT22;11875;49.356;2.718;2023-02-28T05:15:28;1.80;99.90
23405;DHT22;11875;49.356;2.718;2023-02-28T05:17:54;1.90;99.90
23405;DHT22;11875;49.356;2.718;2023-02-28T05:20:19;1.90;99.90
23405;DHT22;11875;49.356;2.718;2023-02-28T05:22:46;2.00;99.90
23405;DHT22;11875;49.356;2.718;2023-02-28T05:25:15;2.00;99.90
23405;DHT22;11875;49.356;2.718;2023-02-28T05:27:41;1.90;99.90
23405;DHT22;11875;49.356;2.718;2023-02-28T05:30:08;1.90;99.90
23405;DHT22;11875;49.356;2.718;2023-02-28T05:32:39;2.00;99.90
23405;DHT22;11875;49.356;2.718;2023-02-28T05:35:09;2.00;99.90
23405;DHT22;11875;49.356;2.718;2023-02-28T05:37:36;2.00;99.90
23405;DHT22;11875;49.356;2.718;2023-02-28T05:40:02;1.90;99.90
23405;DHT22;11875;49.356;2.718;2023-02-28T05:42:31;1.90;99.90
23405;DHT22;11875;49.356;2.718;2023-02-28T05:44:57;1.80;99.90
23405;DHT22;11875;49.356;2.718;2023-02-28T05:47:24;1.90;99.90
23405;DHT22;11875;49.356;2.718;2023-02-28T05:49:50;1.90;99.90
23405;DHT22;11875;49.356;2.718;2023-02-28T05:52:15;1.90;99.90
23405;DHT22;11875;49.356;2.718;2023-02-28T05:54:41;1.80;99.90
23405;DHT22;11875;49.356;2.718;2023-02-28T05:57:07;1.90;99.90
23405;DHT22;11875;49.356;2.718;2023-02-28T05:59:32;1.90;99.90
23405;DHT22;11875;49.356;2.718;2023-02-28T06:01:58;1.80;99.90
23405;DHT22;11875;49.356;2.718;2023-02-28T06:04:24;1.70;99.90
23405;DHT22;11875;49.356;2.718;2023-02-28T06:06:50;1.70;99.90
23405;DHT22;11875;49.356;2.718;2023-02-28T06:09:16;1.70;99.90
23405;DHT22;11875;49.356;2.718;2023-02-28T06:11:42;1.70;99.90
23405;DHT22;11875;49.356;2.718;2023-02-28T06:14:15;1.60;99.90
23405;DHT22;11875;49.356;2.718;2023-02-28T06:16:42;1.50;99.90
23405;DHT22;11875;49.356;2.718;2023-02-28T06:19:08;1.50;99.90
23405;DHT22;11875;49.356;2.718;2023-02-28T06:21:34;1.50;99.90
23405;DHT22;11875;49.356;2.718;2023-02-28T06:24:00;1.50;99.90
23405;DHT22;11875;49.356;2.718;2023-02-28T06:26:26;1.60;99.90
23405;DHT22;11875;49.356;2.718;2023-02-28T06:28:52;1.60;99.90
23405;DHT22;11875;49.356;2.718;2023-02-28T06:31:18;1.60;99.90
23405;DHT22;11875;49.356;2.718;2023-02-28T06:33:45;1.60;99.90
23405;DHT22;11875;49.356;2.718;2023-02-28T06:36:12;1.50;99.90
23405;DHT22;11875;49.356;2.718;2023-02-28T06:38:39;1.50;99.90
23405;DHT22;11875;49.356;2.718;2023-02-28T06:41:05;1.50;99.90
23405;DHT22;11875;49.356;2.718;2023-02-28T06:43:33;1.40;99.90
23405;DHT22;11875;49.356;2.718;2023-02-28T06:46:01;1.50;99.90
23405;DHT22;11875;49.356;2.718;2023-02-28T06:48:27;1.40;99.90
23405;DHT22;11875;49.356;2.718;2023-02-28T06:51:04;1.50;99.90
23405;DHT22;11875;49.356;2.718;2023-02-28T06:53:30;1.50;99.90
23405;DHT22;11875;49.356;2.718;2023-02-28T06:55:56;1.40;99.90
23405;DHT22;11875;49.356;2.718;2023-02-28T06:58:22;1.20;99.90
23405;DHT22;11875;49.356;2.718;2023-02-28T07:00:51;1.10;99.90
23405;DHT22;11875;49.356;2.718;2023-02-28T07:03:17;1.20;99.90
23405;DHT22;11875;49.356;2.718;2023-02-28T07:05:43;1.10;99.90
23405;DHT22;11875;49.356;2.718;2023-02-28T07:08:09;1.10;99.90
23405;DHT22;11875;49.356;2.718;2023-02-28T07:10:37;1.00;99.90
23405;DHT22;11875;49.356;2.718;2023-02-28T07:13:04;1.10;99.90
23405;DHT22;11875;49.356;2.718;2023-02-28T07:15:30;1.20;99.90
23405;DHT22;11875;49.356;2.718;2023-02-28T07:17:56;1.10;99.90
23405;DHT22;11875;49.356;2.718;2023-02-28T07:20:22;1.20;99.90
23405;DHT22;11875;49.356;2.718;2023-02-28T07:22:49;1.30;99.90
23405;DHT22;11875;49.356;2.718;2023-02-28T07:25:24;1.30;99.90
23405;DHT22;11875;49.356;2.718;2023-02-28T07:27:50;1.40;99.90
23405;DHT22;11875;49.356;2.718;2023-02-28T07:30:16;1.30;99.90
23405;DHT22;11875;49.356;2.718;2023-02-28T07:32:42;1.30;99.90
23405;DHT22;11875;49.356;2.718;2023-02-28T07:35:08;1.20;99.90
23405;DHT22;11875;49.356;2.718;2023-02-28T07:37:33;1.20;99.90
23405;DHT22;11875;49.356;2.718;2023-02-28T07:40:06;1.20;99.90
23405;DHT22;11875;49.356;2.718;2023-02-28T07:42:37;1.30;99.90
23405;DHT22;11875;49.356;2.718;2023-02-28T07:45:04;1.30;99.90
23405;DHT22;11875;49.356;2.718;2023-02-28T07:47:30;1.20;99.90
23405;DHT22;11875;49.356;2.718;2023-02-28T07:49:57;1.20;99.90
23405;DHT22;11875;49.356;2.718;2023-02-28T07:52:23;1.40;99.90
23405;DHT22;11875;49.356;2.718;2023-02-28T07:54:50;1.20;99.90
23405;DHT22;11875;49.356;2.718;2023-02-28T07:57:15;1.10;99.90
23405;DHT22;11875;49.356;2.718;2023-02-28T07:59:41;1.30;99.90
23405;DHT22;11875;49.356;2.718;2023-02-28T08:02:11;1.30;99.90
23405;DHT22;11875;49.356;2.718;2023-02-28T08:04:37;1.30;99.90
23405;DHT22;11875;49.356;2.718;2023-02-28T08:07:03;1.80;99.90
23405;DHT22;11875;49.356;2.718;2023-02-28T08:09:28;2.50;99.90
23405;DHT22;11875;49.356;2.718;2023-02-28T08:11:55;3.10;99.90
23405;DHT22;11875;49.356;2.718;2023-02-28T08:14:20;3.60;99.90
23405;DHT22;11875;49.356;2.718;2023-02-28T08:16:46;3.90;99.90
23405;DHT22;11875;49.356;2.718;2023-02-28T08:19:11;4.90;99.90
23405;DHT22;11875;49.356;2.718;2023-02-28T08:21:38;4.60;99.90
23405;DHT22;11875;49.356;2.718;2023-02-28T08:24:05;4.70;99.90
23405;DHT22;11875;49.356;2.718;2023-02-28T08:26:31;4.90;99.90
23405;DHT22;11875;49.356;2.718;2023-02-28T08:28:56;5.00;99.90
23405;DHT22;11875;49.356;2.718;2023-02-28T08:31:22;5.00;99.90
23405;DHT22;11875;49.356;2.718;2023-02-28T08:33:48;6.00;99.90
23405;DHT22;11875;49.356;2.718;2023-02-28T08:36:16;5.30;99.90
23405;DHT22;11875;49.356;2.718;2023-02-28T08:38:42;5.20;99.90
23405;DHT22;11875;49.356;2.718;2023-02-28T08:41:10;5.40;99.90
23405;DHT22;11875;49.356;2.718;2023-02-28T08:43:37;5.30;99.90
23405;DHT22;11875;49.356;2.718;2023-02-28T08:46:02;5.40;99.90
23405;DHT22;11875;49.356;2.718;2023-02-28T08:48:30;5.50;99.90
23405;DHT22;11875;49.356;2.718;2023-02-28T08:51:01;5.50;99.90
23405;DHT22;11875;49.356;2.718;2023-02-28T08:53:27;5.50;99.90
23405;DHT22;11875;49.356;2.718;2023-02-28T08:56:01;5.50;99.90
23405;DHT22;11875;49.356;2.718;2023-02-28T08:58:27;5.50;99.90
23405;DHT22;11875;49.356;2.718;2023-02-28T09:00:53;5.40;99.90
23405;DHT22;11875;49.356;2.718;2023-02-28T09:03:20;5.50;99.90
23405;DHT22;11875;49.356;2.718;2023-02-28T09:05:56;5.50;99.90
23405;DHT22;11875;49.356;2.718;2023-02-28T09:08:24;5.50;99.90
23405;DHT22;11875;49.356;2.718;2023-02-28T09:10:50;5.40;99.90
23405;DHT22;11875;49.356;2.718;2023-02-28T09:13:16;5.30;99.90
23405;DHT22;11875;49.356;2.718;2023-02-28T09:15:42;5.20;99.90
23405;DHT22;11875;49.356;2.718;2023-02-28T09:18:08;5.30;99.90
23405;DHT22;11875;49.356;2.718;2023-02-28T09:20:33;5.40;99.90
23405;DHT22;11875;49.356;2.718;2023-02-28T09:22:59;5.40;99.90
23405;DHT22;11875;49.356;2.718;2023-02-28T09:25:25;5.50;99.90
23405;DHT22;11875;49.356;2.718;2023-02-28T09:27:50;5.60;99.90
23405;DHT22;11875;49.356;2.718;2023-02-28T09:30:16;5.70;99.90
23405;DHT22;11875;49.356;2.718;2023-02-28T09:32:42;5.80;99.90
23405;DHT22;11875;49.356;2.718;2023-02-28T09:35:08;5.80;99.90
23405;DHT22;11875;49.356;2.718;2023-02-28T09:37:38;5.80;99.90
23405;DHT22;11875;49.356;2.718;2023-02-28T09:40:05;5.80;99.90
23405;DHT22;11875;49.356;2.718;2023-02-28T09:42:33;5.80;99.90
23405;DHT22;11875;49.356;2.718;2023-02-28T09:45:02;6.50;99.90
23405;DHT22;11875;49.356;2.718;2023-02-28T09:47:41;5.60;99.90
23405;DHT22;11875;49.356;2.718;2023-02-28T09:52:59;5.70;99.90
23405;DHT22;11875;49.356;2.718;2023-02-28T09:55:39;5.80;99.90
23405;DHT22;11875;49.356;2.718;2023-02-28T09:59:01;5.80;99.90
23405;DHT22;11875;49.356;2.718;2023-02-28T10:01:21;6.70;99.90
23405;DHT22;11875;49.356;2.718;2023-02-28T10:04:03;5.70;99.90
23405;DHT22;11875;49.356;2.718;2023-02-28T10:06:39;5.90;99.90
23405;DHT22;11875;49.356;2.718;2023-02-28T10:09:11;6.10;99.90
23405;DHT22;11875;49.356;2.718;2023-02-28T10:11:39;6.90;99.90
23405;DHT22;11875;49.356;2.718;2023-02-28T10:14:16;6.00;99.60
23405;DHT22;11875;49.356;2.718;2023-02-28T10:16:53;6.10;99.70
23405;DHT22;11875;49.356;2.718;2023-02-28T10:19:25;6.50;99.30
23405;DHT22;11875;49.356;2.718;2023-02-28T10:22:27;6.30;99.10
23405;DHT22;11875;49.356;2.718;2023-02-28T10:24:55;6.30;98.80
23405;DHT22;11875;49.356;2.718;2023-02-28T10:27:32;6.20;99.00
23405;DHT22;11875;49.356;2.718;2023-02-28T10:30:02;6.20;99.20
23405;DHT22;11875;49.356;2.718;2023-02-28T10:32:33;6.00;98.90
23405;DHT22;11875;49.356;2.718;2023-02-28T10:35:19;6.90;99.50
23405;DHT22;11875;49.356;2.718;2023-02-28T10:37:51;6.20;99.10
23405;DHT22;11875;49.356;2.718;2023-02-28T10:43:04;6.60;98.10
23405;DHT22;11875;49.356;2.718;2023-02-28T10:45:34;6.80;98.00
23405;DHT22;11875;49.356;2.718;2023-02-28T10:48:06;6.70;97.90
23405;DHT22;11875;49.356;2.718;2023-02-28T10:50:52;6.80;97.60
23405;DHT22;11875;49.356;2.718;2023-02-28T10:58:48;6.90;97.00
23405;DHT22;11875;49.356;2.718;2023-02-28T11:01:18;6.70;96.40
23405;DHT22;11875;49.356;2.718;2023-02-28T11:03:44;6.50;97.00
23405;DHT22;11875;49.356;2.718;2023-02-28T11:06:21;6.60;96.70
23405;DHT22;11875;49.356;2.718;2023-02-28T11:08:53;6.50;95.60
23405;DHT22;11875;49.356;2.718;2023-02-28T11:11:21;6.50;95.70
23405;DHT22;11875;49.356;2.718;2023-02-28T11:13:51;6.70;95.60
23405;DHT22;11875;49.356;2.718;2023-02-28T11:16:18;6.60;95.50
23405;DHT22;11875;49.356;2.718;2023-02-28T11:18:50;6.50;95.80
23405;DHT22;11875;49.356;2.718;2023-02-28T11:21:36;6.60;95.80
23405;DHT22;11875;49.356;2.718;2023-02-28T11:26:52;6.60;95.70
23405;DHT22;11875;49.356;2.718;2023-02-28T11:29:24;6.60;95.60
23405;DHT22;11875;49.356;2.718;2023-02-28T11:32:21;6.70;95.20
23405;DHT22;11875;49.356;2.718;2023-02-28T11:37:30;6.70;94.80
23405;DHT22;11875;49.356;2.718;2023-02-28T11:39:56;6.70;94.50
23405;DHT22;11875;49.356;2.718;2023-02-28T11:45:09;6.30;94.40
23405;DHT22;11875;49.356;2.718;2023-02-28T11:53:01;6.60;94.30
23405;DHT22;11875;49.356;2.718;2023-02-28T11:55:39;6.10;94.30
23405;DHT22;11875;49.356;2.718;2023-02-28T11:58:16;6.20;93.90
23405;DHT22;11875;49.356;2.718;2023-02-28T12:01:13;6.10;94.20
23405;DHT22;11875;49.356;2.718;2023-02-28T12:06:28;6.00;94.40
23405;DHT22;11875;49.356;2.718;2023-02-28T12:14:41;5.80;94.90
23405;DHT22;11875;49.356;2.718;2023-02-28T12:22:36;6.20;94.60
23405;DHT22;11875;49.356;2.718;2023-02-28T12:25:24;7.20;95.00
23405;DHT22;11875;49.356;2.718;2023-02-28T12:27:56;6.30;94.80
23405;DHT22;11875;49.356;2.718;2023-02-28T12:30:33;6.30;94.60
23405;DHT22;11875;49.356;2.718;2023-02-28T12:33:09;6.30;94.10
23405;DHT22;11875;49.356;2.718;2023-02-28T12:35:44;6.20;94.20
23405;DHT22;11875;49.356;2.718;2023-02-28T12:38:17;6.50;94.60
23405;DHT22;11875;49.356;2.718;2023-02-28T12:43:17;6.80;93.70
23405;DHT22;11875;49.356;2.718;2023-02-28T12:48:57;6.70;93.40
23405;DHT22;11875;49.356;2.718;2023-02-28T12:51:25;6.80;93.00
23405;DHT22;11875;49.356;2.718;2023-02-28T12:59:25;6.70;93.10
23405;DHT22;11875;49.356;2.718;2023-02-28T13:04:55;6.90;92.70
23405;DHT22;11875;49.356;2.718;2023-02-28T13:10:22;7.00;92.40
23405;DHT22;11875;49.356;2.718;2023-02-28T13:12:50;7.00;92.50
23405;DHT22;11875;49.356;2.718;2023-02-28T13:15:27;7.40;92.10
23405;DHT22;11875;49.356;2.718;2023-02-28T13:18:00;7.60;91.70
23405;DHT22;11875;49.356;2.718;2023-02-28T13:20:32;7.40;91.70
23405;DHT22;11875;49.356;2.718;2023-02-28T13:22:59;7.30;91.90
23405;DHT22;11875;49.356;2.718;2023-02-28T13:31:15;7.10;92.00
23405;DHT22;11875;49.356;2.718;2023-02-28T13:36:26;6.80;91.80
23405;DHT22;11875;49.356;2.718;2023-02-28T13:38:56;6.60;92.00
23405;DHT22;11875;49.356;2.718;2023-02-28T13:46:32;6.60;92.00
23405;DHT22;11875;49.356;2.718;2023-02-28T13:49:27;6.70;92.20
23405;DHT22;11875;49.356;2.718;2023-02-28T13:52:18;6.30;91.90
23405;DHT22;11875;49.356;2.718;2023-02-28T14:05:44;6.60;91.90
23405;DHT22;11875;49.356;2.718;2023-02-28T14:08:21;6.80;92.10
23405;DHT22;11875;49.356;2.718;2023-02-28T14:10:50;7.10;91.90
23405;DHT22;11875;49.356;2.718;2023-02-28T14:13:45;7.20;91.90
23405;DHT22;11875;49.356;2.718;2023-02-28T14:16:24;7.30;91.60
23405;DHT22;11875;49.356;2.718;2023-02-28T14:19:05;7.40;91.50
23405;DHT22;11875;49.356;2.718;2023-02-28T14:21:36;7.30;91.70
23405;DHT22;11875;49.356;2.718;2023-02-28T14:32:35;7.70;91.50
23405;DHT22;11875;49.356;2.718;2023-02-28T14:36:21;7.70;91.10
23405;DHT22;11875;49.356;2.718;2023-02-28T14:38:27;7.60;90.80
23405;DHT22;11875;49.356;2.718;2023-02-28T14:40:55;7.30;91.20
23405;DHT22;11875;49.356;2.718;2023-02-28T14:43:25;7.10;90.90
23405;DHT22;11875;49.356;2.718;2023-02-28T14:46:00;7.00;91.00
23405;DHT22;11875;49.356;2.718;2023-02-28T14:48:26;6.80;91.00
23405;DHT22;11875;49.356;2.718;2023-02-28T14:50:55;6.80;91.50
23405;DHT22;11875;49.356;2.718;2023-02-28T14:53:24;6.90;91.90
23405;DHT22;11875;49.356;2.718;2023-02-28T14:55:51;6.70;91.40
23405;DHT22;11875;49.356;2.718;2023-02-28T14:58:32;6.50;91.90
23405;DHT22;11875;49.356;2.718;2023-02-28T15:01:10;7.60;92.10
23405;DHT22;11875;49.356;2.718;2023-02-28T15:03:38;6.90;91.80
23405;DHT22;11875;49.356;2.718;2023-02-28T15:06:16;7.00;91.40
23405;DHT22;11875;49.356;2.718;2023-02-28T15:08:43;7.00;91.90
23405;DHT22;11875;49.356;2.718;2023-02-28T15:11:18;7.00;91.80
23405;DHT22;11875;49.356;2.718;2023-02-28T15:13:50;7.20;91.60
23405;DHT22;11875;49.356;2.718;2023-02-28T15:16:35;7.10;91.30
23405;DHT22;11875;49.356;2.718;2023-02-28T15:19:11;7.00;91.20
23405;DHT22;11875;49.356;2.718;2023-02-28T15:21:40;6.90;91.10
23405;DHT22;11875;49.356;2.718;2023-02-28T15:24:13;6.80;91.00
23405;DHT22;11875;49.356;2.718;2023-02-28T15:26:43;6.70;90.90
23405;DHT22;11875;49.356;2.718;2023-02-28T15:29:13;6.60;90.80
23405;DHT22;11875;49.356;2.718;2023-02-28T15:31:46;6.70;91.00
23405;DHT22;11875;49.356;2.718;2023-02-28T15:34:25;6.60;90.70
23405;DHT22;11875;49.356;2.718;2023-02-28T15:36:52;6.50;90.90
23405;DHT22;11875;49.356;2.718;2023-02-28T15:39:24;6.40;90.60
23405;DHT22;11875;49.356;2.718;2023-02-28T15:41:50;6.50;90.90
23405;DHT22;11875;49.356;2.718;2023-02-28T15:44:23;6.40;90.80
23405;DHT22;11875;49.356;2.718;2023-02-28T15:47:16;6.30;91.00
23405;DHT22;11875;49.356;2.718;2023-02-28T15:49:49;6.50;91.00
23405;DHT22;11875;49.356;2.718;2023-02-28T15:52:19;6.60;91.00
23405;DHT22;11875;49.356;2.718;2023-02-28T15:54:47;6.90;91.20
23405;DHT22;11875;49.356;2.718;2023-02-28T15:57:31;6.80;91.30
23405;DHT22;11875;49.356;2.718;2023-02-28T16:00:00;6.70;91.40
23405;DHT22;11875;49.356;2.718;2023-02-28T16:02:37;6.70;91.60
23405;DHT22;11875;49.356;2.718;2023-02-28T16:07:32;6.70;91.40
23405;DHT22;11875;49.356;2.718;2023-02-28T16:09:58;6.80;91.30
23405;DHT22;11875;49.356;2.718;2023-02-28T16:12:32;7.00;91.40
23405;DHT22;11875;49.356;2.718;2023-02-28T16:15:00;7.10;91.20
23405;DHT22;11875;49.356;2.718;2023-02-28T16:17:31;7.10;91.20
23405;DHT22;11875;49.356;2.718;2023-02-28T16:19:59;7.00;90.90
23405;DHT22;11875;49.356;2.718;2023-02-28T16:22:25;7.10;91.30
23405;DHT22;11875;49.356;2.718;2023-02-28T16:24:50;6.70;91.00
23405;DHT22;11875;49.356;2.718;2023-02-28T16:29:46;6.40;91.30
23405;DHT22;11875;49.356;2.718;2023-02-28T16:32:14;6.40;91.60
23405;DHT22;11875;49.356;2.718;2023-02-28T16:34:41;6.50;91.50
23405;DHT22;11875;49.356;2.718;2023-02-28T16:37:12;6.50;91.40
23405;DHT22;11875;49.356;2.718;2023-02-28T16:39:38;6.50;91.70
23405;DHT22;11875;49.356;2.718;2023-02-28T16:42:04;6.60;91.50
23405;DHT22;11875;49.356;2.718;2023-02-28T16:44:35;6.60;91.40
23405;DHT22;11875;49.356;2.718;2023-02-28T16:47:03;6.60;91.60
23405;DHT22;11875;49.356;2.718;2023-02-28T16:49:29;6.70;91.50
23405;DHT22;11875;49.356;2.718;2023-02-28T16:51:56;6.70;91.30
23405;DHT22;11875;49.356;2.718;2023-02-28T16:54:22;6.80;91.40
23405;DHT22;11875;49.356;2.718;2023-02-28T16:56:48;6.80;91.30
23405;DHT22;11875;49.356;2.718;2023-02-28T16:59:19;6.80;91.30
23405;DHT22;11875;49.356;2.718;2023-02-28T17:01:46;6.90;91.30
23405;DHT22;11875;49.356;2.718;2023-02-28T17:04:11;6.80;91.30
23405;DHT22;11875;49.356;2.718;2023-02-28T17:06:38;6.80;91.40
23405;DHT22;11875;49.356;2.718;2023-02-28T17:09:03;6.90;91.30
23405;DHT22;11875;49.356;2.718;2023-02-28T17:11:29;6.80;91.40
23405;DHT22;11875;49.356;2.718;2023-02-28T17:13:55;6.90;91.30
23405;DHT22;11875;49.356;2.718;2023-02-28T17:18:55;6.80;91.30
23405;DHT22;11875;49.356;2.718;2023-02-28T17:21:22;6.70;91.40
23405;DHT22;11875;49.356;2.718;2023-02-28T17:23:47;6.60;91.50
23405;DHT22;11875;49.356;2.718;2023-02-28T17:26:15;6.60;91.70
23405;DHT22;11875;49.356;2.718;2023-02-28T17:28:43;6.60;91.70
23405;DHT22;11875;49.356;2.718;2023-02-28T17:31:09;6.60;91.70
23405;DHT22;11875;49.356;2.718;2023-02-28T17:33:34;6.60;91.80
23405;DHT22;11875;49.356;2.718;2023-02-28T17:36:00;6.70;91.60
23405;DHT22;11875;49.356;2.718;2023-02-28T17:38:26;6.80;91.50
23405;DHT22;11875;49.356;2.718;2023-02-28T17:40:52;6.70;91.50
23405;DHT22;11875;49.356;2.718;2023-02-28T17:43:23;6.70;91.30
23405;DHT22;11875;49.356;2.718;2023-02-28T17:45:48;6.60;91.30
23405;DHT22;11875;49.356;2.718;2023-02-28T17:48:14;6.60;91.40
23405;DHT22;11875;49.356;2.718;2023-02-28T17:50:40;6.70;91.40
23405;DHT22;11875;49.356;2.718;2023-02-28T17:53:06;6.60;91.20
23405;DHT22;11875;49.356;2.718;2023-02-28T17:55:31;6.60;91.40
23405;DHT22;11875;49.356;2.718;2023-02-28T17:57:58;6.60;91.30
23405;DHT22;11875;49.356;2.718;2023-02-28T18:00:24;6.50;91.40
23405;DHT22;11875;49.356;2.718;2023-02-28T18:02:51;6.50;91.40
23405;DHT22;11875;49.356;2.718;2023-02-28T18:05:17;6.40;91.50
23405;DHT22;11875;49.356;2.718;2023-02-28T18:07:42;6.30;91.70
23405;DHT22;11875;49.356;2.718;2023-02-28T18:10:16;6.30;91.80
23405;DHT22;11875;49.356;2.718;2023-02-28T18:12:48;6.80;92.30